Terminal Aerodrome Forecast
Issued by NWS

Home | Current Version | Previous Version | Text Only | Print | Product List | Glossary On
Versions: 1 2 3 4 5 6 7 8 9 10 11 12 13 14 15 16
731
FTPA31 PHFO 221733
TAFSTU
TAF
NSTU 221733Z 2218/2318 12012KT P6SM SCT020 SCT040 SCT100
     FM230600 13015G22KT P6SM VCSH SCT015 BKN035 OVC080
      TEMPO 2312/2316 3SM +SHRA BKN015 OVC030=

USA.gov is the U.S. government's official web portal to all federal, state and local government web resources and services.